createdAt,value
2019-02-27T00:02:09.441Z,25.33
2019-02-27T00:04:40.082Z,21.27
2019-02-27T00:07:11.766Z,20.63
2019-02-27T00:09:42.338Z,24.10
2019-02-27T00:12:13.718Z,23.00
2019-02-27T00:14:44.288Z,20.80
2019-02-27T00:17:15.098Z,19.67
2019-02-27T00:19:45.232Z,21.23
2019-02-27T00:22:17.683Z,20.20
2019-02-27T00:24:47.007Z,23.37
2019-02-27T00:27:18.421Z,23.77
2019-02-27T00:29:49.870Z,21.43
2019-02-27T00:32:20.520Z,20.67
2019-02-27T00:34:50.906Z,22.47
2019-02-27T00:37:22.123Z,20.77
2019-02-27T00:39:52.517Z,20.90
2019-02-27T00:42:23.126Z,20.67
2019-02-27T00:44:53.716Z,22.73
2019-02-27T00:47:24.352Z,21.73
2019-02-27T00:49:54.931Z,20.97
2019-02-27T00:52:25.536Z,20.80
2019-02-27T00:54:56.700Z,21.37
2019-02-27T00:57:29.109Z,20.80
2019-02-27T01:00:09.606Z,19.80
2019-02-27T01:02:40.382Z,18.57
2019-02-27T01:05:10.776Z,16.57
2019-02-27T01:07:41.416Z,18.20
2019-02-27T01:10:12.982Z,18.47
2019-02-27T01:12:49.032Z,18.07
2019-02-27T01:15:20.173Z,17.97
2019-02-27T01:17:51.635Z,18.53
2019-02-27T01:20:22.206Z,18.33
2019-02-27T01:23:12.549Z,18.23
2019-02-27T01:25:43.880Z,18.07
2019-02-27T01:28:14.451Z,18.80
2019-02-27T01:30:45.407Z,17.33
2019-02-27T01:33:15.988Z,18.03
2019-02-27T01:35:51.270Z,18.13
2019-02-27T01:38:17.166Z,18.27
2019-02-27T01:40:51.526Z,18.13
2019-02-27T01:43:19.742Z,18.73
2019-02-27T01:45:51.886Z,20.20
2019-02-27T01:48:43.626Z,18.63
2019-02-27T01:51:12.428Z,17.83
2019-02-27T01:53:42.998Z,20.30
2019-02-27T01:56:13.376Z,18.90
2019-02-27T01:58:44.405Z,19.27
2019-02-27T02:01:14.324Z,18.90
2019-02-27T02:03:47.253Z,19.87
2019-02-27T02:06:16.295Z,20.47
2019-02-27T02:08:48.335Z,21.53
2019-02-27T02:11:17.259Z,22.07
2019-02-27T02:13:48.768Z,20.40
2019-02-27T02:16:22.047Z,23.33
2019-02-27T02:19:15.877Z,23.13
2019-02-27T02:25:17.614Z,22.43
2019-02-27T02:28:00.180Z,19.20
2019-02-27T02:30:38.435Z,24.80
2019-02-27T02:33:29.073Z,21.53
2019-02-27T02:35:56.828Z,21.90
2019-02-27T02:39:08.478Z,19.77
2019-02-27T02:41:47.967Z,20.70
2019-02-27T02:44:37.391Z,20.80
2019-02-27T02:47:24.720Z,20.57
2019-02-27T02:50:09.114Z,20.17
2019-02-27T02:53:05.453Z,23.50
2019-02-27T02:55:58.446Z,21.47
2019-02-27T02:59:05.008Z,20.17
2019-02-27T03:04:31.785Z,19.07
2019-02-27T03:07:11.072Z,20.50
2019-02-27T03:09:43.404Z,19.33
2019-02-27T03:12:13.972Z,20.90
2019-02-27T03:15:03.976Z,21.70
2019-02-27T03:18:09.971Z,20.03
2019-02-27T03:20:51.767Z,21.20
2019-02-27T03:23:50.814Z,21.60
2019-02-27T03:26:37.032Z,20.70
2019-02-27T03:29:33.278Z,19.40
2019-02-27T03:32:11.929Z,21.23
2019-02-27T03:35:11.637Z,21.97
2019-02-27T03:37:48.424Z,22.40
2019-02-27T03:41:01.596Z,20.43
2019-02-27T03:43:46.115Z,19.77
2019-02-27T03:46:20.226Z,22.03
2019-02-27T03:49:22.935Z,20.77
2019-02-27T03:52:13.902Z,18.73
2019-02-27T03:55:04.840Z,19.27
2019-02-27T03:57:43.552Z,19.67
2019-02-27T04:00:42.103Z,20.40
2019-02-27T04:03:45.457Z,21.77
2019-02-27T04:09:18.897Z,20.80
2019-02-27T04:12:03.648Z,22.20
2019-02-27T04:14:40.292Z,21.07
2019-02-27T04:17:07.001Z,19.27
2019-02-27T04:19:38.718Z,20.33
2019-02-27T04:22:05.857Z,20.13
2019-02-27T04:24:37.072Z,18.17
2019-02-27T04:27:07.459Z,20.13
2019-02-27T04:29:42.723Z,18.90
2019-02-27T04:32:13.311Z,19.00
2019-02-27T04:34:43.454Z,21.13
2019-02-27T04:37:13.844Z,20.07
2019-02-27T04:39:44.997Z,19.80
2019-02-27T04:42:15.439Z,19.60
2019-02-27T04:44:45.830Z,19.27
2019-02-27T04:47:17.222Z,20.20
2019-02-27T04:49:47.812Z,17.60
2019-02-27T04:52:18.131Z,22.00
2019-02-27T04:54:48.747Z,23.43
2019-02-27T04:57:19.353Z,20.13
2019-02-27T04:59:52.385Z,20.63
2019-02-27T05:02:23.682Z,19.13
2019-02-27T05:04:55.350Z,19.07
2019-02-27T05:07:33.230Z,19.57
2019-02-27T05:10:06.889Z,18.77
2019-02-27T05:12:36.622Z,21.70
2019-02-27T05:15:07.206Z,22.63
2019-02-27T05:17:58.809Z,22.80
2019-02-27T05:20:27.755Z,21.77
2019-02-27T05:23:00.486Z,21.03
2019-02-27T05:25:30.043Z,20.87
2019-02-27T05:28:01.577Z,21.47
2019-02-27T05:30:31.118Z,19.77
2019-02-27T05:33:02.912Z,18.73
2019-02-27T05:35:33.178Z,21.43
2019-02-27T05:38:03.564Z,18.00
2019-02-27T05:40:34.183Z,19.53
2019-02-27T05:43:04.749Z,20.13
2019-02-27T05:45:35.321Z,18.50
2019-02-27T05:48:05.830Z,21.20
2019-02-27T05:50:36.401Z,21.50
2019-02-27T05:53:06.983Z,21.07
2019-02-27T05:55:39.176Z,20.67
2019-02-27T05:58:07.816Z,20.63
2019-02-27T06:01:04.622Z,21.77
2019-02-27T06:03:30.850Z,18.77
2019-02-27T06:06:01.470Z,18.30
2019-02-27T06:08:36.806Z,19.07
2019-02-27T06:11:03.239Z,22.13
2019-02-27T06:13:34.611Z,19.20
2019-02-27T06:16:08.951Z,19.87
2019-02-27T06:18:56.879Z,19.67
2019-02-27T06:21:26.406Z,19.03
2019-02-27T06:24:03.121Z,21.00
2019-02-27T06:26:33.545Z,18.83
2019-02-27T06:29:04.121Z,19.37
2019-02-27T06:31:39.305Z,20.80
2019-02-27T06:34:06.122Z,18.33
2019-02-27T06:36:56.063Z,18.27
2019-02-27T06:39:27.440Z,19.00
2019-02-27T06:41:57.776Z,18.67
2019-02-27T06:44:28.110Z,20.60
2019-02-27T06:47:07.172Z,17.03
2019-02-27T06:49:40.367Z,23.23
2019-02-27T06:52:11.003Z,18.80
2019-02-27T06:54:41.581Z,20.30
2019-02-27T06:57:12.030Z,23.37
2019-02-27T06:59:42.592Z,22.30
2019-02-27T07:02:13.021Z,20.30
2019-02-27T07:04:43.591Z,25.10
2019-02-27T07:07:14.195Z,15.60
2019-02-27T07:09:46.461Z,20.93
2019-02-27T07:12:16.062Z,19.93
2019-02-27T07:14:46.621Z,20.80
2019-02-27T07:17:17.067Z,22.60
2019-02-27T07:19:49.721Z,21.57
2019-02-27T07:22:17.715Z,22.60
2019-02-27T07:24:48.170Z,20.30
2019-02-27T07:27:18.856Z,20.83
2019-02-27T07:29:49.212Z,19.80
2019-02-27T07:32:26.059Z,24.73
2019-02-27T07:34:56.631Z,22.93
2019-02-27T07:37:33.408Z,19.97
2019-02-27T07:40:08.183Z,19.77
2019-02-27T07:42:53.718Z,20.97
2019-02-27T07:45:26.346Z,25.13
2019-02-27T07:47:57.684Z,21.07
2019-02-27T07:50:28.327Z,22.17
2019-02-27T07:52:58.964Z,20.93
2019-02-27T07:55:30.300Z,27.43
2019-02-27T07:58:01.505Z,21.53
2019-02-27T08:00:31.834Z,22.30
2019-02-27T08:03:09.231Z,21.60
2019-02-27T08:05:36.965Z,21.37
2019-02-27T08:08:07.672Z,24.33
2019-02-27T08:10:38.927Z,21.80
2019-02-27T08:13:09.554Z,21.67
2019-02-27T08:15:40.707Z,23.17
2019-02-27T08:20:55.309Z,22.90
2019-02-27T08:23:28.482Z,24.70
2019-02-27T08:25:58.840Z,23.10
2019-02-27T08:28:33.128Z,21.93
2019-02-27T08:31:04.471Z,21.63
2019-02-27T08:33:35.090Z,22.67
2019-02-27T08:36:06.253Z,25.47
2019-02-27T08:38:36.973Z,21.80
2019-02-27T08:41:08.061Z,22.93
2019-02-27T08:43:58.642Z,22.90
2019-02-27T08:46:29.991Z,24.97
2019-02-27T08:49:00.566Z,23.40
2019-02-27T08:51:31.198Z,24.17
2019-02-27T08:54:01.595Z,23.73
2019-02-27T08:56:39.356Z,21.00
2019-02-27T08:59:10.493Z,21.77
2019-02-27T09:01:41.073Z,21.00
2019-02-27T09:04:12.360Z,27.23
2019-02-27T09:06:42.851Z,22.07
2019-02-27T09:09:17.947Z,22.43
2019-02-27T09:11:46.498Z,22.13
2019-02-27T09:14:19.113Z,23.07
2019-02-27T09:16:49.513Z,20.50
2019-02-27T09:19:20.812Z,22.40
2019-02-27T09:21:50.535Z,20.70
2019-02-27T09:24:20.922Z,23.10
2019-02-27T09:26:51.530Z,20.33
2019-02-27T09:29:22.670Z,17.43
2019-02-27T09:31:53.060Z,22.43
2019-02-27T09:34:43.874Z,21.80
2019-02-27T09:37:16.913Z,18.93
2019-02-27T09:39:44.788Z,19.23
2019-02-27T09:42:18.720Z,24.20
2019-02-27T09:44:45.520Z,20.87
2019-02-27T09:47:16.980Z,22.80
2019-02-27T09:49:48.307Z,21.40
2019-02-27T09:52:18.912Z,22.07
2019-02-27T09:54:49.537Z,20.57
2019-02-27T09:57:20.987Z,22.77
2019-02-27T09:59:53.702Z,22.77
2019-02-27T10:02:25.845Z,28.23
2019-02-27T10:05:16.621Z,22.30
2019-02-27T10:07:48.430Z,22.53
2019-02-27T10:10:17.658Z,20.67
2019-02-27T10:12:49.214Z,22.63
2019-02-27T10:15:22.513Z,20.57
2019-02-27T10:17:50.743Z,22.40
2019-02-27T10:20:21.141Z,21.80
2019-02-27T10:22:53.256Z,23.20
2019-02-27T10:25:27.285Z,24.83
2019-02-27T10:28:03.431Z,18.57
2019-02-27T10:30:29.071Z,22.07
2019-02-27T10:32:59.694Z,20.97
2019-02-27T10:35:30.857Z,23.53
2019-02-27T10:38:01.475Z,21.73
2019-02-27T10:40:31.929Z,22.87
2019-02-27T10:43:02.632Z,23.63
2019-02-27T10:45:33.790Z,21.00
2019-02-27T10:48:04.107Z,23.93
2019-02-27T10:50:36.125Z,21.80
2019-02-27T10:53:05.751Z,21.43
2019-02-27T10:55:36.138Z,21.37
2019-02-27T10:58:12.808Z,26.20
2019-02-27T11:00:39.047Z,24.17
2019-02-27T11:03:09.743Z,25.83
2019-02-27T11:05:40.891Z,21.40
2019-02-27T11:08:11.624Z,24.63
2019-02-27T11:10:42.969Z,20.70
2019-02-27T11:13:14.354Z,23.40
2019-02-27T11:15:45.572Z,21.83
2019-02-27T11:18:15.902Z,21.10
2019-02-27T11:20:46.528Z,19.20
2019-02-27T11:23:17.258Z,20.97
2019-02-27T11:25:48.618Z,22.00
2019-02-27T11:28:18.950Z,20.83
2019-02-27T11:30:51.076Z,22.57
2019-02-27T11:33:25.621Z,21.97
2019-02-27T11:35:51.714Z,19.40
2019-02-27T11:38:24.701Z,21.37
2019-02-27T11:40:53.386Z,22.47
2019-02-27T11:43:24.058Z,20.13
2019-02-27T11:45:58.034Z,22.37
2019-02-27T11:48:25.869Z,19.90
2019-02-27T11:51:02.589Z,21.30
2019-02-27T11:53:35.642Z,21.10
2019-02-27T11:56:03.674Z,21.87
2019-02-27T11:58:35.246Z,21.57
2019-02-27T12:01:23.555Z,24.93
2019-02-27T12:03:54.118Z,21.90
2019-02-27T12:06:25.708Z,23.50
2019-02-27T12:09:17.519Z,20.97
2019-02-27T12:11:51.005Z,19.33
2019-02-27T12:14:21.506Z,22.10
2019-02-27T12:16:52.610Z,22.10
2019-02-27T12:19:45.314Z,22.37
2019-02-27T12:22:15.245Z,26.60
2019-02-27T12:24:45.684Z,23.30
2019-02-27T12:27:37.791Z,23.83
2019-02-27T12:32:35.686Z,22.30
2019-02-27T12:35:08.231Z,23.83
2019-02-27T12:37:37.563Z,24.43
2019-02-27T12:40:10.766Z,21.37
2019-02-27T12:42:42.712Z,19.50
2019-02-27T12:45:12.831Z,22.30
2019-02-27T12:47:43.380Z,22.00
2019-02-27T12:50:16.410Z,21.43
2019-02-27T12:52:48.128Z,20.87
2019-02-27T12:55:18.065Z,21.90
2019-02-27T12:57:52.467Z,22.43
2019-02-27T13:00:33.469Z,21.90
2019-02-27T13:03:09.513Z,20.33
2019-02-27T13:05:41.442Z,25.03
2019-02-27T13:08:12.537Z,22.00
2019-02-27T13:10:43.311Z,22.77
2019-02-27T13:13:13.952Z,22.03
2019-02-27T13:15:45.301Z,24.80
2019-02-27T13:18:16.753Z,19.87
2019-02-27T13:20:47.979Z,24.13
2019-02-27T13:23:18.624Z,22.20
2019-02-27T13:25:49.977Z,20.47
2019-02-27T13:28:21.177Z,21.53
2019-02-27T13:30:51.868Z,20.47
2019-02-27T13:33:24.437Z,22.17
2019-02-27T13:35:56.735Z,23.47
2019-02-27T13:38:28.728Z,24.73
2019-02-27T13:40:59.117Z,20.80
2019-02-27T13:43:29.932Z,19.73
2019-02-27T13:46:01.485Z,18.53
2019-02-27T13:48:31.867Z,20.23
2019-02-27T13:51:02.743Z,17.60
2019-02-27T13:53:32.885Z,20.67
2019-02-27T13:56:03.536Z,27.55
2019-02-27T13:58:36.522Z,24.20
2019-02-27T14:01:05.354Z,17.00
2019-02-27T14:03:36.032Z,18.70
2019-02-27T14:06:09.403Z,17.07
2019-02-27T14:08:38.114Z,20.93
2019-02-27T14:11:08.738Z,18.33
2019-02-27T14:13:43.742Z,13.73
2019-02-27T14:16:09.453Z,17.43
2019-02-27T14:18:49.792Z,15.97
2019-02-27T14:21:17.452Z,16.37
2019-02-27T14:23:55.414Z,18.47
2019-02-27T14:26:26.604Z,15.37
2019-02-27T14:29:20.379Z,14.77
2019-02-27T14:32:14.428Z,15.00
2019-02-27T14:34:41.577Z,14.10
2019-02-27T14:37:16.193Z,17.40
2019-02-27T14:39:43.391Z,16.53
2019-02-27T14:42:15.187Z,16.13
2019-02-27T14:44:45.938Z,18.03
2019-02-27T14:47:17.125Z,15.37
2019-02-27T14:49:48.431Z,14.93
2019-02-27T14:52:19.525Z,14.40
2019-02-27T14:55:11.614Z,16.77
2019-02-27T14:57:50.154Z,16.63
2019-02-27T15:03:07.178Z,14.70
2019-02-27T15:05:42.872Z,14.73
2019-02-27T15:08:07.829Z,16.13
2019-02-27T15:10:41.152Z,15.90
2019-02-27T15:13:08.608Z,16.97
2019-02-27T15:16:01.829Z,20.13
2019-02-27T15:18:33.274Z,17.00
2019-02-27T15:21:04.626Z,17.20
2019-02-27T15:23:35.841Z,19.20
2019-02-27T15:26:06.426Z,16.87
2019-02-27T15:28:37.045Z,17.27
2019-02-27T15:31:07.417Z,17.97
2019-02-27T15:33:59.154Z,15.97
2019-02-27T15:38:11.777Z,16.73
2019-02-27T15:40:41.017Z,17.97
2019-02-27T15:43:11.819Z,16.77
2019-02-27T15:45:47.918Z,18.53
2019-02-27T15:48:12.358Z,17.17
2019-02-27T15:50:42.757Z,19.70
2019-02-27T15:53:16.637Z,21.50
2019-02-27T15:55:47.034Z,20.23
2019-02-27T15:58:17.694Z,18.03
2019-02-27T16:00:52.322Z,18.47
2019-02-27T16:03:19.569Z,17.53
2019-02-27T16:05:50.663Z,16.63
2019-02-27T16:08:42.762Z,19.07
2019-02-27T16:11:14.083Z,16.60
2019-02-27T16:13:43.689Z,15.80
2019-02-27T16:16:14.252Z,17.50
2019-02-27T16:18:44.636Z,14.53
2019-02-27T16:21:15.018Z,15.73
2019-02-27T16:23:48.694Z,16.67
2019-02-27T16:26:19.116Z,16.50
2019-02-27T16:28:50.468Z,18.80
2019-02-27T16:31:21.927Z,16.70
2019-02-27T16:33:52.294Z,15.43
2019-02-27T16:36:46.932Z,15.70
2019-02-27T16:39:16.333Z,18.13
2019-02-27T16:41:46.924Z,16.23
2019-02-27T16:44:39.017Z,14.83
2019-02-27T16:47:10.364Z,14.23
2019-02-27T16:49:41.583Z,14.47
2019-02-27T16:52:11.957Z,13.73
2019-02-27T16:54:42.298Z,14.10
2019-02-27T16:57:24.154Z,13.03
2019-02-27T16:59:51.321Z,14.27
2019-02-27T17:02:21.709Z,13.63
2019-02-27T17:04:52.228Z,15.03
2019-02-27T17:07:25.614Z,13.70
2019-02-27T17:09:54.054Z,17.17
2019-02-27T17:12:24.783Z,17.23
2019-02-27T17:14:58.775Z,14.50
2019-02-27T17:17:46.539Z,14.23
2019-02-27T17:20:19.529Z,14.37
2019-02-27T17:22:49.912Z,18.77
2019-02-27T17:25:20.573Z,17.00
2019-02-27T17:27:53.416Z,15.93
2019-02-27T17:30:24.555Z,15.50
2019-02-27T17:32:54.950Z,14.97
2019-02-27T17:35:25.360Z,19.57
2019-02-27T17:37:55.677Z,15.47
2019-02-27T17:40:26.060Z,18.27
2019-02-27T17:42:56.437Z,16.17
2019-02-27T17:45:26.833Z,17.13
2019-02-27T17:47:57.533Z,18.97
2019-02-27T17:50:31.717Z,28.23
2019-02-27T17:53:00.035Z,40.57
2019-02-27T17:55:31.633Z,49.53
2019-02-27T17:58:03.118Z,67.22
2019-02-27T18:00:33.522Z,43.33
2019-02-27T18:03:05.833Z,33.87
2019-02-27T18:05:35.998Z,28.13
2019-02-27T18:08:07.413Z,25.10
2019-02-27T18:10:38.367Z,22.63
2019-02-27T18:13:08.666Z,23.73
2019-02-27T18:15:58.099Z,22.00
2019-02-27T18:18:29.321Z,22.60
2019-02-27T18:21:00.340Z,26.20
2019-02-27T18:23:30.520Z,23.20
2019-02-27T18:26:00.855Z,19.43
2019-02-27T18:28:32.917Z,17.53
2019-02-27T18:31:01.874Z,21.23
2019-02-27T18:33:32.263Z,19.70
2019-02-27T18:36:07.976Z,21.23
2019-02-27T18:38:39.112Z,20.83
2019-02-27T18:41:10.446Z,20.83
2019-02-27T18:43:41.779Z,19.73
2019-02-27T18:46:12.423Z,22.30
2019-02-27T18:48:43.731Z,18.47
2019-02-27T18:51:34.312Z,23.27
2019-02-27T18:54:04.953Z,21.07
2019-02-27T18:56:37.012Z,21.40
2019-02-27T18:59:06.818Z,21.23
2019-02-27T19:01:37.153Z,21.10
2019-02-27T19:04:07.830Z,18.80
2019-02-27T19:06:38.389Z,18.33
2019-02-27T19:09:09.552Z,19.83
2019-02-27T19:11:39.954Z,18.60
2019-02-27T19:14:11.354Z,17.73
2019-02-27T19:17:04.446Z,19.90
2019-02-27T19:22:18.478Z,20.70
2019-02-27T19:24:57.476Z,19.37
2019-02-27T19:27:29.829Z,16.67
2019-02-27T19:30:06.237Z,18.13
2019-02-27T19:32:32.933Z,17.93
2019-02-27T19:35:03.270Z,18.27
2019-02-27T19:37:36.422Z,19.47
2019-02-27T19:40:05.067Z,19.90
2019-02-27T19:42:35.664Z,20.10
2019-02-27T19:45:06.017Z,19.07
2019-02-27T19:47:36.585Z,17.23
2019-02-27T19:50:08.569Z,17.93
2019-02-27T19:52:37.623Z,19.93
2019-02-27T19:55:07.952Z,17.70
2019-02-27T19:57:42.336Z,16.70
2019-02-27T20:00:14.488Z,19.07
2019-02-27T20:02:44.832Z,19.83
2019-02-27T20:05:16.494Z,18.07
2019-02-27T20:07:46.599Z,20.53
2019-02-27T20:10:19.290Z,21.00
2019-02-27T20:12:52.917Z,21.17
2019-02-27T20:15:23.582Z,19.60
2019-02-27T20:17:54.918Z,19.30
2019-02-27T20:20:32.887Z,20.30
2019-02-27T20:23:04.226Z,21.00
2019-02-27T20:25:35.597Z,19.70
2019-02-27T20:28:06.181Z,19.00
2019-02-27T20:30:36.747Z,18.07
2019-02-27T20:33:07.395Z,17.33
2019-02-27T20:35:38.088Z,21.07
2019-02-27T20:38:08.650Z,18.63
2019-02-27T20:40:39.228Z,22.47
2019-02-27T20:43:10.613Z,20.73
2019-02-27T20:45:42.931Z,22.00
2019-02-27T20:48:11.564Z,19.80
2019-02-27T20:50:50.513Z,20.30
2019-02-27T20:53:21.172Z,20.47
2019-02-27T20:55:51.368Z,19.43
2019-02-27T20:58:22.905Z,22.20
2019-02-27T21:00:53.521Z,20.00
2019-02-27T21:03:27.103Z,18.43
2019-02-27T21:05:54.664Z,17.40
2019-02-27T21:08:25.068Z,18.83
2019-02-27T21:10:58.518Z,18.03
2019-02-27T21:13:29.868Z,18.07
2019-02-27T21:16:00.457Z,19.43
2019-02-27T21:18:52.309Z,20.03
2019-02-27T21:21:20.869Z,21.10
2019-02-27T21:23:51.361Z,22.60
2019-02-27T21:26:22.887Z,20.57
2019-02-27T21:28:58.519Z,21.97
2019-02-27T21:31:26.645Z,20.87
2019-02-27T21:33:53.390Z,19.93
2019-02-27T21:36:23.851Z,22.07
2019-02-27T21:38:54.186Z,23.43
2019-02-27T21:41:25.055Z,21.03
2019-02-27T21:43:57.182Z,21.17
2019-02-27T21:46:26.909Z,24.27
2019-02-27T21:48:58.606Z,23.70
2019-02-27T21:51:27.755Z,24.93
2019-02-27T21:54:04.716Z,27.73
2019-02-27T21:56:35.686Z,23.50
2019-02-27T21:59:06.107Z,22.00
2019-02-27T22:01:36.425Z,22.40
2019-02-27T22:04:13.229Z,22.37
2019-02-27T22:06:44.392Z,22.43
2019-02-27T22:09:14.729Z,23.87
2019-02-27T22:11:45.162Z,21.23
2019-02-27T22:14:16.661Z,20.30
2019-02-27T22:16:47.087Z,22.53
2019-02-27T22:19:19.105Z,23.73
2019-02-27T22:21:49.365Z,21.10
2019-02-27T22:24:20.955Z,20.80
2019-02-27T22:26:51.290Z,21.53
2019-02-27T22:29:25.260Z,23.50
2019-02-27T22:31:53.415Z,20.90
2019-02-27T22:34:23.750Z,22.47
2019-02-27T22:37:17.491Z,21.67
2019-02-27T22:39:45.940Z,23.70
2019-02-27T22:42:17.048Z,21.20
2019-02-27T22:45:12.083Z,19.77
2019-02-27T22:47:42.650Z,22.37
2019-02-27T22:52:54.280Z,21.67
2019-02-27T22:55:22.678Z,29.90
2019-02-27T22:58:12.473Z,25.13
2019-02-27T23:00:56.205Z,25.80
2019-02-27T23:03:29.999Z,24.73
2019-02-27T23:06:00.702Z,23.53
2019-02-27T23:08:31.505Z,21.50
2019-02-27T23:11:02.846Z,25.13
2019-02-27T23:13:51.627Z,23.90
2019-02-27T23:16:23.992Z,21.70
2019-02-27T23:18:55.387Z,20.87
2019-02-27T23:21:33.290Z,22.60
2019-02-27T23:24:10.202Z,21.53
2019-02-27T23:26:38.364Z,20.90
2019-02-27T23:29:09.119Z,23.43
2019-02-27T23:31:39.690Z,19.60
2019-02-27T23:34:10.265Z,22.87
2019-02-27T23:36:40.642Z,23.83
2019-02-27T23:39:11.228Z,22.20
2019-02-27T23:41:41.609Z,23.00
2019-02-27T23:44:12.320Z,21.60
2019-02-27T23:46:54.478Z,20.43
2019-02-27T23:49:25.713Z,25.13
2019-02-27T23:52:03.608Z,25.33
2019-02-27T23:54:35.795Z,25.50
2019-02-27T23:57:24.674Z,23.27
2019-02-27T23:59:54.818Z,25.60
